sensor_id;sensor_type;location;lat;lon;timestamp;temperature;humidity
68922;DHT22;55959;51.244;5.724;2023-03-04T00:01:47;9.30;58.00
68922;DHT22;55959;51.244;5.724;2023-03-04T00:04:13;9.30;58.00
68922;DHT22;55959;51.244;5.724;2023-03-04T00:06:38;9.30;58.00
68922;DHT22;55959;51.244;5.724;2023-03-04T00:09:04;9.30;58.00
68922;DHT22;55959;51.244;5.724;2023-03-04T00:11:31;9.30;58.10
68922;DHT22;55959;51.244;5.724;2023-03-04T00:13:57;9.20;58.10
68922;DHT22;55959;51.244;5.724;2023-03-04T00:16:24;9.20;58.10
68922;DHT22;55959;51.244;5.724;2023-03-04T00:18:54;9.20;58.10
68922;DHT22;55959;51.244;5.724;2023-03-04T00:21:21;9.20;58.10
68922;DHT22;55959;51.244;5.724;2023-03-04T00:23:47;9.20;58.10
68922;DHT22;55959;51.244;5.724;2023-03-04T00:26:13;9.20;58.10
68922;DHT22;55959;51.244;5.724;2023-03-04T00:28:39;9.20;58.20
68922;DHT22;55959;51.244;5.724;2023-03-04T00:31:09;9.20;58.20
68922;DHT22;55959;51.244;5.724;2023-03-04T00:33:35;9.20;58.20
68922;DHT22;55959;51.244;5.724;2023-03-04T00:36:02;9.20;58.80
68922;DHT22;55959;51.244;5.724;2023-03-04T00:38:29;9.20;58.20
68922;DHT22;55959;51.244;5.724;2023-03-04T00:40:54;9.20;58.20
68922;DHT22;55959;51.244;5.724;2023-03-04T00:43:20;9.20;58.30
68922;DHT22;55959;51.244;5.724;2023-03-04T00:45:46;9.20;58.90
68922;DHT22;55959;51.244;5.724;2023-03-04T00:48:12;9.20;58.30
68922;DHT22;55959;51.244;5.724;2023-03-04T00:50:38;9.20;58.40
68922;DHT22;55959;51.244;5.724;2023-03-04T00:53:05;9.20;58.40
68922;DHT22;55959;51.244;5.724;2023-03-04T00:55:30;9.20;58.40
68922;DHT22;55959;51.244;5.724;2023-03-04T00:57:56;9.20;58.40
68922;DHT22;55959;51.244;5.724;2023-03-04T01:00:22;9.20;58.40
68922;DHT22;55959;51.244;5.724;2023-03-04T01:02:48;9.20;58.40
68922;DHT22;55959;51.244;5.724;2023-03-04T01:05:15;9.20;58.40
68922;DHT22;55959;51.244;5.724;2023-03-04T01:07:40;9.20;58.40
68922;DHT22;55959;51.244;5.724;2023-03-04T01:10:09;9.20;58.40
68922;DHT22;55959;51.244;5.724;2023-03-04T01:12:37;9.30;58.50
68922;DHT22;55959;51.244;5.724;2023-03-04T01:15:05;9.20;58.40
68922;DHT22;55959;51.244;5.724;2023-03-04T01:17:31;9.20;58.50
68922;DHT22;55959;51.244;5.724;2023-03-04T01:19:57;9.20;59.10
68922;DHT22;55959;51.244;5.724;2023-03-04T01:22:23;9.20;58.50
68922;DHT22;55959;51.244;5.724;2023-03-04T01:24:49;9.20;58.50
68922;DHT22;55959;51.244;5.724;2023-03-04T01:27:15;9.20;58.50
68922;DHT22;55959;51.244;5.724;2023-03-04T01:29:41;9.20;58.50
68922;DHT22;55959;51.244;5.724;2023-03-04T01:32:07;9.20;58.50
68922;DHT22;55959;51.244;5.724;2023-03-04T01:34:33;9.20;58.50
68922;DHT22;55959;51.244;5.724;2023-03-04T01:36:58;9.20;58.50
68922;DHT22;55959;51.244;5.724;2023-03-04T01:39:24;9.30;58.50
68922;DHT22;55959;51.244;5.724;2023-03-04T01:41:50;9.20;58.50
68922;DHT22;55959;51.244;5.724;2023-03-04T01:44:16;9.20;58.60
68922;DHT22;55959;51.244;5.724;2023-03-04T01:46:47;9.20;58.50
68922;DHT22;55959;51.244;5.724;2023-03-04T01:49:15;9.20;58.60
68922;DHT22;55959;51.244;5.724;2023-03-04T01:51:43;9.20;58.60
68922;DHT22;55959;51.244;5.724;2023-03-04T01:54:14;9.20;58.60
68922;DHT22;55959;51.244;5.724;2023-03-04T01:56:43;9.20;58.60
68922;DHT22;55959;51.244;5.724;2023-03-04T02:01:53;9.20;58.60
68922;DHT22;55959;51.244;5.724;2023-03-04T02:04:23;9.20;58.70
68922;DHT22;55959;51.244;5.724;2023-03-04T02:06:50;9.20;58.70
68922;DHT22;55959;51.244;5.724;2023-03-04T02:09:17;9.20;58.70
68922;DHT22;55959;51.244;5.724;2023-03-04T02:11:44;9.20;58.70
68922;DHT22;55959;51.244;5.724;2023-03-04T02:14:11;9.20;58.70
68922;DHT22;55959;51.244;5.724;2023-03-04T02:16:38;9.30;58.80
68922;DHT22;55959;51.244;5.724;2023-03-04T02:22:17;9.20;58.80
68922;DHT22;55959;51.244;5.724;2023-03-04T02:24:47;9.20;58.80
68922;DHT22;55959;51.244;5.724;2023-03-04T02:27:33;9.20;58.90
68922;DHT22;55959;51.244;5.724;2023-03-04T02:29:59;9.20;58.90
68922;DHT22;55959;51.244;5.724;2023-03-04T02:32:24;9.20;59.00
68922;DHT22;55959;51.244;5.724;2023-03-04T02:34:50;9.20;59.00
68922;DHT22;55959;51.244;5.724;2023-03-04T02:37:17;9.20;59.00
68922;DHT22;55959;51.244;5.724;2023-03-04T02:39:45;9.20;59.10
68922;DHT22;55959;51.244;5.724;2023-03-04T02:42:12;9.20;59.70
68922;DHT22;55959;51.244;5.724;2023-03-04T02:44:43;9.20;59.10
68922;DHT22;55959;51.244;5.724;2023-03-04T02:47:13;9.20;59.10
68922;DHT22;55959;51.244;5.724;2023-03-04T02:49:42;9.20;59.20
68922;DHT22;55959;51.244;5.724;2023-03-04T02:52:12;9.20;59.20
68922;DHT22;55959;51.244;5.724;2023-03-04T02:54:48;9.20;59.10
68922;DHT22;55959;51.244;5.724;2023-03-04T02:57:14;9.20;59.10
68922;DHT22;55959;51.244;5.724;2023-03-04T02:59:41;9.20;59.10
68922;DHT22;55959;51.244;5.724;2023-03-04T03:02:07;9.20;59.10
68922;DHT22;55959;51.244;5.724;2023-03-04T03:04:35;9.10;59.00
68922;DHT22;55959;51.244;5.724;2023-03-04T03:07:02;9.20;59.10
68922;DHT22;55959;51.244;5.724;2023-03-04T03:09:28;9.20;59.10
68922;DHT22;55959;51.244;5.724;2023-03-04T03:11:53;9.10;59.10
68922;DHT22;55959;51.244;5.724;2023-03-04T03:14:20;9.10;59.20
68922;DHT22;55959;51.244;5.724;2023-03-04T03:16:45;9.20;59.30
68922;DHT22;55959;51.244;5.724;2023-03-04T03:19:11;9.10;59.20
68922;DHT22;55959;51.244;5.724;2023-03-04T03:21:37;9.10;59.20
68922;DHT22;55959;51.244;5.724;2023-03-04T03:24:03;9.10;59.30
68922;DHT22;55959;51.244;5.724;2023-03-04T03:26:29;9.10;59.20
68922;DHT22;55959;51.244;5.724;2023-03-04T03:28:56;9.10;59.30
68922;DHT22;55959;51.244;5.724;2023-03-04T03:31:22;9.10;59.30
68922;DHT22;55959;51.244;5.724;2023-03-04T03:33:47;9.20;59.30
68922;DHT22;55959;51.244;5.724;2023-03-04T03:36:13;9.20;59.30
68922;DHT22;55959;51.244;5.724;2023-03-04T03:38:39;9.20;59.30
68922;DHT22;55959;51.244;5.724;2023-03-04T03:41:06;9.20;59.30
68922;DHT22;55959;51.244;5.724;2023-03-04T03:43:31;9.10;59.20
68922;DHT22;55959;51.244;5.724;2023-03-04T03:45:57;9.10;59.30
68922;DHT22;55959;51.244;5.724;2023-03-04T03:48:24;9.20;59.30
68922;DHT22;55959;51.244;5.724;2023-03-04T03:50:50;9.20;59.30
68922;DHT22;55959;51.244;5.724;2023-03-04T03:53:15;9.10;59.30
68922;DHT22;55959;51.244;5.724;2023-03-04T03:55:41;9.10;59.30
68922;DHT22;55959;51.244;5.724;2023-03-04T03:58:07;9.10;59.30
68922;DHT22;55959;51.244;5.724;2023-03-04T04:00:33;9.10;59.40
68922;DHT22;55959;51.244;5.724;2023-03-04T04:02:59;9.10;59.50
68922;DHT22;55959;51.244;5.724;2023-03-04T04:05:26;9.10;59.50
68922;DHT22;55959;51.244;5.724;2023-03-04T04:07:52;9.10;59.50
68922;DHT22;55959;51.244;5.724;2023-03-04T04:10:18;9.10;59.50
68922;DHT22;55959;51.244;5.724;2023-03-04T04:12:44;9.10;59.50
68922;DHT22;55959;51.244;5.724;2023-03-04T04:15:11;9.10;59.60
68922;DHT22;55959;51.244;5.724;2023-03-04T04:17:37;9.10;59.50
68922;DHT22;55959;51.244;5.724;2023-03-04T04:20:05;9.10;59.60
68922;DHT22;55959;51.244;5.724;2023-03-04T04:22:31;9.10;59.60
68922;DHT22;55959;51.244;5.724;2023-03-04T04:24:57;9.10;59.60
68922;DHT22;55959;51.244;5.724;2023-03-04T04:27:23;9.10;59.70
68922;DHT22;55959;51.244;5.724;2023-03-04T04:29:49;9.10;59.70
68922;DHT22;55959;51.244;5.724;2023-03-04T04:32:14;9.10;59.70
68922;DHT22;55959;51.244;5.724;2023-03-04T04:34:40;9.10;59.70
68922;DHT22;55959;51.244;5.724;2023-03-04T04:37:06;9.10;59.80
68922;DHT22;55959;51.244;5.724;2023-03-04T04:39:32;9.10;59.80
68922;DHT22;55959;51.244;5.724;2023-03-04T04:41:58;9.10;59.80
68922;DHT22;55959;51.244;5.724;2023-03-04T04:44:23;9.10;59.80
68922;DHT22;55959;51.244;5.724;2023-03-04T04:46:49;9.10;59.80
68922;DHT22;55959;51.244;5.724;2023-03-04T04:49:15;9.10;59.80
68922;DHT22;55959;51.244;5.724;2023-03-04T04:51:40;9.10;59.80
68922;DHT22;55959;51.244;5.724;2023-03-04T04:54:07;9.10;59.80
68922;DHT22;55959;51.244;5.724;2023-03-04T04:56:32;9.10;59.90
68922;DHT22;55959;51.244;5.724;2023-03-04T04:59:02;9.10;59.90
68922;DHT22;55959;51.244;5.724;2023-03-04T05:01:29;9.10;59.90
68922;DHT22;55959;51.244;5.724;2023-03-04T05:03:55;9.10;59.90
68922;DHT22;55959;51.244;5.724;2023-03-04T05:06:22;9.10;59.90
68922;DHT22;55959;51.244;5.724;2023-03-04T05:08:49;9.10;59.90
68922;DHT22;55959;51.244;5.724;2023-03-04T05:11:16;9.10;60.00
68922;DHT22;55959;51.244;5.724;2023-03-04T05:13:45;9.10;60.00
68922;DHT22;55959;51.244;5.724;2023-03-04T05:16:11;9.10;60.00
68922;DHT22;55959;51.244;5.724;2023-03-04T05:18:37;9.10;60.00
68922;DHT22;55959;51.244;5.724;2023-03-04T05:21:04;9.20;61.10
68922;DHT22;55959;51.244;5.724;2023-03-04T05:23:33;9.10;60.20
68922;DHT22;55959;51.244;5.724;2023-03-04T05:26:01;9.10;60.40
68922;DHT22;55959;51.244;5.724;2023-03-04T05:28:27;9.10;60.40
68922;DHT22;55959;51.244;5.724;2023-03-04T05:30:53;9.10;60.40
68922;DHT22;55959;51.244;5.724;2023-03-04T05:33:19;9.10;60.50
68922;DHT22;55959;51.244;5.724;2023-03-04T05:35:45;9.10;60.60
68922;DHT22;55959;51.244;5.724;2023-03-04T05:38:14;9.10;60.70
68922;DHT22;55959;51.244;5.724;2023-03-04T05:40:41;9.10;60.70
68922;DHT22;55959;51.244;5.724;2023-03-04T05:43:07;9.10;60.80
68922;DHT22;55959;51.244;5.724;2023-03-04T05:45:34;9.10;60.80
68922;DHT22;55959;51.244;5.724;2023-03-04T05:48:00;9.10;60.80
68922;DHT22;55959;51.244;5.724;2023-03-04T05:50:26;9.10;60.80
68922;DHT22;55959;51.244;5.724;2023-03-04T05:52:52;9.10;60.80
68922;DHT22;55959;51.244;5.724;2023-03-04T05:55:18;9.10;60.80
68922;DHT22;55959;51.244;5.724;2023-03-04T05:57:44;9.10;60.90
68922;DHT22;55959;51.244;5.724;2023-03-04T06:00:12;9.10;60.80
68922;DHT22;55959;51.244;5.724;2023-03-04T06:02:39;9.10;60.80
68922;DHT22;55959;51.244;5.724;2023-03-04T06:05:06;9.10;60.70
68922;DHT22;55959;51.244;5.724;2023-03-04T06:07:33;9.10;60.60
68922;DHT22;55959;51.244;5.724;2023-03-04T06:09:59;9.10;60.60
68922;DHT22;55959;51.244;5.724;2023-03-04T06:12:25;9.10;60.60
68922;DHT22;55959;51.244;5.724;2023-03-04T06:14:50;9.10;60.60
68922;DHT22;55959;51.244;5.724;2023-03-04T06:17:16;9.10;60.60
68922;DHT22;55959;51.244;5.724;2023-03-04T06:19:42;9.10;60.60
68922;DHT22;55959;51.244;5.724;2023-03-04T06:22:09;9.10;60.60
68922;DHT22;55959;51.244;5.724;2023-03-04T06:24:35;9.10;60.60
68922;DHT22;55959;51.244;5.724;2023-03-04T06:27:01;9.10;60.60
68922;DHT22;55959;51.244;5.724;2023-03-04T06:29:27;9.10;60.60
68922;DHT22;55959;51.244;5.724;2023-03-04T06:31:53;9.10;60.60
68922;DHT22;55959;51.244;5.724;2023-03-04T06:34:18;9.10;60.60
68922;DHT22;55959;51.244;5.724;2023-03-04T06:36:44;9.10;60.60
68922;DHT22;55959;51.244;5.724;2023-03-04T06:39:10;9.10;60.60
68922;DHT22;55959;51.244;5.724;2023-03-04T06:41:36;9.10;60.60
68922;DHT22;55959;51.244;5.724;2023-03-04T06:44:02;9.10;60.60
68922;DHT22;55959;51.244;5.724;2023-03-04T06:46:28;9.10;60.50
68922;DHT22;55959;51.244;5.724;2023-03-04T06:48:54;9.10;60.60
68922;DHT22;55959;51.244;5.724;2023-03-04T06:51:20;9.10;60.60
68922;DHT22;55959;51.244;5.724;2023-03-04T06:53:46;9.00;60.50
68922;DHT22;55959;51.244;5.724;2023-03-04T06:56:12;9.10;60.50
68922;DHT22;55959;51.244;5.724;2023-03-04T06:58:43;9.10;60.50
68922;DHT22;55959;51.244;5.724;2023-03-04T07:01:24;9.10;60.50
68922;DHT22;55959;51.244;5.724;2023-03-04T07:03:51;9.10;60.50
68922;DHT22;55959;51.244;5.724;2023-03-04T07:06:20;9.10;60.50
68922;DHT22;55959;51.244;5.724;2023-03-04T07:08:47;9.10;60.60
68922;DHT22;55959;51.244;5.724;2023-03-04T07:11:14;9.10;60.60
68922;DHT22;55959;51.244;5.724;2023-03-04T07:13:40;9.10;60.70
68922;DHT22;55959;51.244;5.724;2023-03-04T07:16:11;9.10;60.60
68922;DHT22;55959;51.244;5.724;2023-03-04T07:18:38;9.10;60.80
68922;DHT22;55959;51.244;5.724;2023-03-04T07:21:05;9.10;60.90
68922;DHT22;55959;51.244;5.724;2023-03-04T07:23:32;9.10;61.00
68922;DHT22;55959;51.244;5.724;2023-03-04T07:26:01;9.10;61.10
68922;DHT22;55959;51.244;5.724;2023-03-04T07:28:27;9.10;61.20
68922;DHT22;55959;51.244;5.724;2023-03-04T07:30:53;9.10;61.40
68922;DHT22;55959;51.244;5.724;2023-03-04T07:33:19;9.10;61.50
68922;DHT22;55959;51.244;5.724;2023-03-04T07:35:45;9.10;61.60
68922;DHT22;55959;51.244;5.724;2023-03-04T07:38:10;9.10;61.70
68922;DHT22;55959;51.244;5.724;2023-03-04T07:40:36;9.10;62.70
68922;DHT22;55959;51.244;5.724;2023-03-04T07:43:03;9.10;61.80
68922;DHT22;55959;51.244;5.724;2023-03-04T07:45:29;9.10;61.80
68922;DHT22;55959;51.244;5.724;2023-03-04T07:47:57;9.10;62.00
68922;DHT22;55959;51.244;5.724;2023-03-04T07:50:23;9.20;62.10
68922;DHT22;55959;51.244;5.724;2023-03-04T07:52:49;9.20;62.20
68922;DHT22;55959;51.244;5.724;2023-03-04T07:55:18;9.20;62.30
68922;DHT22;55959;51.244;5.724;2023-03-04T07:57:45;9.20;62.40
68922;DHT22;55959;51.244;5.724;2023-03-04T08:00:14;9.20;62.50
68922;DHT22;55959;51.244;5.724;2023-03-04T08:02:41;9.20;62.50
68922;DHT22;55959;51.244;5.724;2023-03-04T08:05:08;9.20;62.50
68922;DHT22;55959;51.244;5.724;2023-03-04T08:07:34;9.20;62.50
68922;DHT22;55959;51.244;5.724;2023-03-04T08:10:00;9.30;62.50
68922;DHT22;55959;51.244;5.724;2023-03-04T08:12:26;9.20;62.40
68922;DHT22;55959;51.244;5.724;2023-03-04T08:14:52;9.30;62.60
68922;DHT22;55959;51.244;5.724;2023-03-04T08:17:18;9.30;62.60
68922;DHT22;55959;51.244;5.724;2023-03-04T08:19:43;9.30;62.60
68922;DHT22;55959;51.244;5.724;2023-03-04T08:22:10;9.30;62.50
68922;DHT22;55959;51.244;5.724;2023-03-04T08:24:36;9.30;62.40
68922;DHT22;55959;51.244;5.724;2023-03-04T08:27:02;9.30;62.50
68922;DHT22;55959;51.244;5.724;2023-03-04T08:29:30;9.30;62.60
68922;DHT22;55959;51.244;5.724;2023-03-04T08:31:55;9.30;62.60
68922;DHT22;55959;51.244;5.724;2023-03-04T08:34:24;9.30;62.60
68922;DHT22;55959;51.244;5.724;2023-03-04T08:36:51;9.40;62.70
68922;DHT22;55959;51.244;5.724;2023-03-04T08:39:18;9.40;62.80
68922;DHT22;55959;51.244;5.724;2023-03-04T08:41:45;9.40;63.00
68922;DHT22;55959;51.244;5.724;2023-03-04T08:44:12;9.40;63.10
68922;DHT22;55959;51.244;5.724;2023-03-04T08:46:39;9.50;63.40
68922;DHT22;55959;51.244;5.724;2023-03-04T08:49:06;9.50;63.60
68922;DHT22;55959;51.244;5.724;2023-03-04T08:51:33;9.60;63.80
68922;DHT22;55959;51.244;5.724;2023-03-04T08:54:03;9.60;64.00
68922;DHT22;55959;51.244;5.724;2023-03-04T08:56:29;9.60;64.00
68922;DHT22;55959;51.244;5.724;2023-03-04T08:58:55;9.70;64.30
68922;DHT22;55959;51.244;5.724;2023-03-04T09:01:21;9.70;64.40
68922;DHT22;55959;51.244;5.724;2023-03-04T09:03:47;9.80;64.50
68922;DHT22;55959;51.244;5.724;2023-03-04T09:06:15;9.80;64.40
68922;DHT22;55959;51.244;5.724;2023-03-04T09:08:42;9.80;64.30
68922;DHT22;55959;51.244;5.724;2023-03-04T09:11:08;9.90;64.60
68922;DHT22;55959;51.244;5.724;2023-03-04T09:13:34;10.00;64.80
68922;DHT22;55959;51.244;5.724;2023-03-04T09:16:01;9.90;64.60
68922;DHT22;55959;51.244;5.724;2023-03-04T09:18:30;10.00;64.60
68922;DHT22;55959;51.244;5.724;2023-03-04T09:20:55;10.00;64.50
68922;DHT22;55959;51.244;5.724;2023-03-04T09:23:22;10.10;64.30
68922;DHT22;55959;51.244;5.724;2023-03-04T09:25:48;10.10;64.10
68922;DHT22;55959;51.244;5.724;2023-03-04T09:28:14;10.10;64.10
68922;DHT22;55959;51.244;5.724;2023-03-04T09:30:41;10.20;64.00
68922;DHT22;55959;51.244;5.724;2023-03-04T09:33:07;10.20;64.10
68922;DHT22;55959;51.244;5.724;2023-03-04T09:35:35;10.20;64.30
68922;DHT22;55959;51.244;5.724;2023-03-04T09:38:01;10.20;64.40
68922;DHT22;55959;51.244;5.724;2023-03-04T09:40:31;10.30;64.50
68922;DHT22;55959;51.244;5.724;2023-03-04T09:43:03;10.30;64.40
68922;DHT22;55959;51.244;5.724;2023-03-04T09:45:40;10.30;64.60
68922;DHT22;55959;51.244;5.724;2023-03-04T09:48:13;10.40;64.70
68922;DHT22;55959;51.244;5.724;2023-03-04T09:50:59;10.50;64.70
68922;DHT22;55959;51.244;5.724;2023-03-04T09:53:44;10.50;64.50
68922;DHT22;55959;51.244;5.724;2023-03-04T09:56:13;10.50;64.10
68922;DHT22;55959;51.244;5.724;2023-03-04T10:01:39;10.60;63.50
68922;DHT22;55959;51.244;5.724;2023-03-04T10:04:21;10.60;63.70
68922;DHT22;55959;51.244;5.724;2023-03-04T10:07:01;10.60;63.90
68922;DHT22;55959;51.244;5.724;2023-03-04T10:12:16;10.70;63.70
68922;DHT22;55959;51.244;5.724;2023-03-04T10:14:59;10.70;63.30
68922;DHT22;55959;51.244;5.724;2023-03-04T10:17:36;10.80;63.40
68922;DHT22;55959;51.244;5.724;2023-03-04T10:22:56;10.90;63.50
68922;DHT22;55959;51.244;5.724;2023-03-04T10:25:28;11.00;63.50
68922;DHT22;55959;51.244;5.724;2023-03-04T10:28:19;11.10;62.90
68922;DHT22;55959;51.244;5.724;2023-03-04T10:33:38;11.10;61.50
68922;DHT22;55959;51.244;5.724;2023-03-04T10:39:00;11.10;61.20
68922;DHT22;55959;51.244;5.724;2023-03-04T10:41:29;11.10;61.10
68922;DHT22;55959;51.244;5.724;2023-03-04T10:46:39;11.20;61.50
68922;DHT22;55959;51.244;5.724;2023-03-04T10:49:08;11.20;61.10
68922;DHT22;55959;51.244;5.724;2023-03-04T10:51:45;11.20;60.30
68922;DHT22;55959;51.244;5.724;2023-03-04T10:54:31;11.20;60.30
68922;DHT22;55959;51.244;5.724;2023-03-04T10:57:20;11.30;60.60
68922;DHT22;55959;51.244;5.724;2023-03-04T11:02:50;11.30;60.90
68922;DHT22;55959;51.244;5.724;2023-03-04T11:05:21;11.40;60.50
68922;DHT22;55959;51.244;5.724;2023-03-04T11:07:49;11.40;60.30
68922;DHT22;55959;51.244;5.724;2023-03-04T11:10:25;11.40;60.30
68922;DHT22;55959;51.244;5.724;2023-03-04T11:15:24;11.50;60.00
68922;DHT22;55959;51.244;5.724;2023-03-04T11:18:40;11.50;59.90
68922;DHT22;55959;51.244;5.724;2023-03-04T11:21:21;11.50;59.70
68922;DHT22;55959;51.244;5.724;2023-03-04T11:26:42;11.50;59.30
68922;DHT22;55959;51.244;5.724;2023-03-04T11:29:34;11.50;59.50
68922;DHT22;55959;51.244;5.724;2023-03-04T11:32:05;11.50;59.70
68922;DHT22;55959;51.244;5.724;2023-03-04T11:37:35;11.50;59.90
68922;DHT22;55959;51.244;5.724;2023-03-04T11:40:12;11.50;59.70
68922;DHT22;55959;51.244;5.724;2023-03-04T11:42:53;11.50;59.50
68922;DHT22;55959;51.244;5.724;2023-03-04T11:45:30;11.50;59.50
68922;DHT22;55959;51.244;5.724;2023-03-04T11:48:17;11.50;59.40
68922;DHT22;55959;51.244;5.724;2023-03-04T11:52:01;11.40;59.40
68922;DHT22;55959;51.244;5.724;2023-03-04T11:57:22;11.40;59.40
68922;DHT22;55959;51.244;5.724;2023-03-04T12:00:09;11.40;59.60
68922;DHT22;55959;51.244;5.724;2023-03-04T12:11:08;11.50;60.10
68922;DHT22;55959;51.244;5.724;2023-03-04T12:14:01;11.50;60.00
68922;DHT22;55959;51.244;5.724;2023-03-04T12:20:15;11.60;59.80
68922;DHT22;55959;51.244;5.724;2023-03-04T12:22:45;11.60;59.60
68922;DHT22;55959;51.244;5.724;2023-03-04T12:25:59;11.60;59.30
68922;DHT22;55959;51.244;5.724;2023-03-04T12:40:31;11.50;59.30
68922;DHT22;55959;51.244;5.724;2023-03-04T12:43:25;11.50;59.50
68922;DHT22;55959;51.244;5.724;2023-03-04T12:48:38;11.50;59.80
68922;DHT22;55959;51.244;5.724;2023-03-04T12:51:22;11.50;59.90
68922;DHT22;55959;51.244;5.724;2023-03-04T12:56:59;11.60;59.90
68922;DHT22;55959;51.244;5.724;2023-03-04T12:59:42;11.60;59.90
68922;DHT22;55959;51.244;5.724;2023-03-04T13:02:48;11.70;59.90
68922;DHT22;55959;51.244;5.724;2023-03-04T13:11:37;11.60;59.50
68922;DHT22;55959;51.244;5.724;2023-03-04T13:16:50;11.60;59.60
68922;DHT22;55959;51.244;5.724;2023-03-04T13:22:53;11.60;59.80
68922;DHT22;55959;51.244;5.724;2023-03-04T13:28:18;11.50;59.90
68922;DHT22;55959;51.244;5.724;2023-03-04T13:43:41;11.40;61.20
68922;DHT22;55959;51.244;5.724;2023-03-04T13:56:23;11.50;61.80
68922;DHT22;55959;51.244;5.724;2023-03-04T14:04:32;11.50;61.70
68922;DHT22;55959;51.244;5.724;2023-03-04T14:07:02;11.50;61.80
68922;DHT22;55959;51.244;5.724;2023-03-04T14:12:56;11.50;61.90
68922;DHT22;55959;51.244;5.724;2023-03-04T14:15:30;11.50;61.90
68922;DHT22;55959;51.244;5.724;2023-03-04T14:17:58;11.50;62.10
68922;DHT22;55959;51.244;5.724;2023-03-04T14:20:28;11.50;62.30
68922;DHT22;55959;51.244;5.724;2023-03-04T14:22:58;11.50;62.30
68922;DHT22;55959;51.244;5.724;2023-03-04T14:25:33;11.50;62.50
68922;DHT22;55959;51.244;5.724;2023-03-04T14:28:03;11.50;62.50
68922;DHT22;55959;51.244;5.724;2023-03-04T14:30:36;11.50;62.70
68922;DHT22;55959;51.244;5.724;2023-03-04T14:33:06;11.50;63.10
68922;DHT22;55959;51.244;5.724;2023-03-04T14:35:34;11.40;63.20
68922;DHT22;55959;51.244;5.724;2023-03-04T14:38:06;11.40;63.70
68922;DHT22;55959;51.244;5.724;2023-03-04T14:41:07;11.40;64.10
68922;DHT22;55959;51.244;5.724;2023-03-04T14:43:41;11.30;64.30
68922;DHT22;55959;51.244;5.724;2023-03-04T14:46:33;11.30;64.80
68922;DHT22;55959;51.244;5.724;2023-03-04T14:49:05;11.30;65.10
68922;DHT22;55959;51.244;5.724;2023-03-04T14:51:44;11.20;65.50
68922;DHT22;55959;51.244;5.724;2023-03-04T14:54:33;11.20;65.70
68922;DHT22;55959;51.244;5.724;2023-03-04T14:59:48;11.20;66.30
68922;DHT22;55959;51.244;5.724;2023-03-04T15:02:34;11.10;66.50
68922;DHT22;55959;51.244;5.724;2023-03-04T15:05:15;11.10;66.90
68922;DHT22;55959;51.244;5.724;2023-03-04T15:07:50;11.00;67.10
68922;DHT22;55959;51.244;5.724;2023-03-04T15:10:26;11.00;67.30
68922;DHT22;55959;51.244;5.724;2023-03-04T15:12:57;11.00;67.70
68922;DHT22;55959;51.244;5.724;2023-03-04T15:15:43;11.00;67.90
68922;DHT22;55959;51.244;5.724;2023-03-04T15:18:22;11.00;67.90
68922;DHT22;55959;51.244;5.724;2023-03-04T15:23:45;11.00;68.30
68922;DHT22;55959;51.244;5.724;2023-03-04T15:26:12;11.00;69.10
68922;DHT22;55959;51.244;5.724;2023-03-04T15:28:39;11.00;68.40
68922;DHT22;55959;51.244;5.724;2023-03-04T15:31:20;11.00;68.30
68922;DHT22;55959;51.244;5.724;2023-03-04T15:33:48;11.00;68.30
68922;DHT22;55959;51.244;5.724;2023-03-04T15:36:17;11.10;68.30
68922;DHT22;55959;51.244;5.724;2023-03-04T15:38:46;11.10;68.30
68922;DHT22;55959;51.244;5.724;2023-03-04T15:41:19;11.10;68.30
68922;DHT22;55959;51.244;5.724;2023-03-04T15:43:47;11.10;68.10
68922;DHT22;55959;51.244;5.724;2023-03-04T15:46:13;11.10;68.00
68922;DHT22;55959;51.244;5.724;2023-03-04T15:48:39;11.10;67.90
68922;DHT22;55959;51.244;5.724;2023-03-04T15:51:13;11.10;67.80
68922;DHT22;55959;51.244;5.724;2023-03-04T15:53:44;11.10;67.80
68922;DHT22;55959;51.244;5.724;2023-03-04T15:56:18;11.10;67.70
68922;DHT22;55959;51.244;5.724;2023-03-04T15:58:51;11.10;67.70
68922;DHT22;55959;51.244;5.724;2023-03-04T16:01:36;11.10;67.70
68922;DHT22;55959;51.244;5.724;2023-03-04T16:04:02;11.20;67.70
68922;DHT22;55959;51.244;5.724;2023-03-04T16:06:30;11.20;67.70
68922;DHT22;55959;51.244;5.724;2023-03-04T16:08:58;11.20;67.70
68922;DHT22;55959;51.244;5.724;2023-03-04T16:11:26;11.20;67.70
68922;DHT22;55959;51.244;5.724;2023-03-04T16:13:53;11.20;67.70
68922;DHT22;55959;51.244;5.724;2023-03-04T16:16:19;11.20;67.80
68922;DHT22;55959;51.244;5.724;2023-03-04T16:18:45;11.30;67.80
68922;DHT22;55959;51.244;5.724;2023-03-04T16:21:13;11.30;67.70
68922;DHT22;55959;51.244;5.724;2023-03-04T16:23:43;11.30;67.70
68922;DHT22;55959;51.244;5.724;2023-03-04T16:26:17;11.30;67.70
68922;DHT22;55959;51.244;5.724;2023-03-04T16:28:45;11.30;67.70
68922;DHT22;55959;51.244;5.724;2023-03-04T16:31:12;11.40;67.70
68922;DHT22;55959;51.244;5.724;2023-03-04T16:33:38;11.40;67.70
68922;DHT22;55959;51.244;5.724;2023-03-04T16:36:21;11.40;67.60
68922;DHT22;55959;51.244;5.724;2023-03-04T16:38:49;11.40;67.30
68922;DHT22;55959;51.244;5.724;2023-03-04T16:41:16;11.40;67.10
68922;DHT22;55959;51.244;5.724;2023-03-04T16:43:45;11.40;67.10
68922;DHT22;55959;51.244;5.724;2023-03-04T16:46:12;11.40;66.90
68922;DHT22;55959;51.244;5.724;2023-03-04T16:48:38;11.50;66.80
68922;DHT22;55959;51.244;5.724;2023-03-04T16:51:15;11.40;66.30
68922;DHT22;55959;51.244;5.724;2023-03-04T16:53:47;11.40;66.10
68922;DHT22;55959;51.244;5.724;2023-03-04T16:56:16;11.40;65.60
68922;DHT22;55959;51.244;5.724;2023-03-04T16:58:44;11.40;66.20
68922;DHT22;55959;51.244;5.724;2023-03-04T17:01:18;11.40;65.10
68922;DHT22;55959;51.244;5.724;2023-03-04T17:03:46;11.30;64.70
68922;DHT22;55959;51.244;5.724;2023-03-04T17:06:13;11.30;64.30
68922;DHT22;55959;51.244;5.724;2023-03-04T17:08:39;11.30;64.10
68922;DHT22;55959;51.244;5.724;2023-03-04T17:11:06;11.30;64.10
68922;DHT22;55959;51.244;5.724;2023-03-04T17:13:32;11.20;64.10
68922;DHT22;55959;51.244;5.724;2023-03-04T17:16:01;11.20;64.10
68922;DHT22;55959;51.244;5.724;2023-03-04T17:18:28;11.20;64.10
68922;DHT22;55959;51.244;5.724;2023-03-04T17:21:01;11.20;63.90
68922;DHT22;55959;51.244;5.724;2023-03-04T17:23:28;11.20;63.90
68922;DHT22;55959;51.244;5.724;2023-03-04T17:25:58;11.20;63.70
68922;DHT22;55959;51.244;5.724;2023-03-04T17:28:24;11.20;63.70
68922;DHT22;55959;51.244;5.724;2023-03-04T17:30:50;11.20;63.70
68922;DHT22;55959;51.244;5.724;2023-03-04T17:33:16;11.10;63.60
68922;DHT22;55959;51.244;5.724;2023-03-04T17:35:44;11.10;63.60
68922;DHT22;55959;51.244;5.724;2023-03-04T17:38:11;11.10;63.60
68922;DHT22;55959;51.244;5.724;2023-03-04T17:40:38;11.10;63.50
68922;DHT22;55959;51.244;5.724;2023-03-04T17:43:04;11.10;63.50
68922;DHT22;55959;51.244;5.724;2023-03-04T17:45:40;11.10;63.40
68922;DHT22;55959;51.244;5.724;2023-03-04T17:48:07;11.00;63.30
68922;DHT22;55959;51.244;5.724;2023-03-04T17:50:51;11.00;63.30
68922;DHT22;55959;51.244;5.724;2023-03-04T17:53:17;11.00;63.10
68922;DHT22;55959;51.244;5.724;2023-03-04T17:55:58;11.00;63.10